Orient, NY (11957)

1:58 AM EDT on August 29, 2016 (GMT -0400)
Orient | | Change Station

Elev 15 ft 41.14 °N, 72.29 °W | Updated 5 seconds ago

Overcast
Overcast
71.8 °F
Feels Like 72 °F
N
2.9
Wind Variable Wind from West
Gusts 9.0 mph

Today
High -- | Low -- °F
--% Chance of Precip.
Yesterday
High -- | Low -- °F
Precip. -- in
Pressure 30.16 in
Visibility 10.0 miles
Clouds Overcast 7000 ft
Heat Index 72 °F
Dew Point 65 °F
Humidity 79%
Rainfall 0.00 in
Snow Depth Not available.
6:13 AM 7:25 PM
Waning Crescent, 10% visible
METAR KHTO 290535Z AUTO 00000KT 10SM OVC070 18/17 A3016 RMK AO2 T01810171
Pressure 30.16 in
Visibility 10.0 miles
Clouds Overcast 7000 ft
Heat Index 72 °F
Dew Point 65 °F
Humidity 79%
Rainfall 0.00 in
Snow Depth Not available.
6:13 AM 7:25 PM
Waning Crescent, 10% visible
METAR KHTO 290535Z AUTO 00000KT 10SM OVC070 18/17 A3016 RMK AO2 T01810171

10-Day Weather Forecast

Almanac

Astronomy

Aug. 29, 2016 Rise Set
Actual Time
Civil Twilight
Nautical Twilight
Astronomical Twilight
Moon
Length of Visible Light
Length of Day
Tomorrow will be .
, % of the Moon is Illuminated

Today's Extremes

State Highs State Lows

Community

WunderPhotos

Upload Photos

1,935,800 photos uploaded!

WunderBlog® & News

Nearby

Air Quality

  Air Quality AQ Index Pollutant
Not available.

Snow Depth

Station Depth Elevation

Earthquake Activity

City Distance Mag. Time & Date
Minimum magnitude displayed is 2.5.

Coastal Water Temperatures

Place Temperature

Stations

Nearby Weather Stations

Station Location Temp. Windchill Dew Point Humidity Wind Precip. Elev Updated Type
                   

Watches & Warnings

There are currently no watches in effect.